Time;durP1;ratioP1;P1;durP2;ratioP2;P2;SDS_P1;SDS_P2;PMS_P1;PMS_P2;Temp;Humidity;BMP_temperature;BMP_pressure;BME280_temperature;BME280_humidity;BME280_pressure;Samples;Min_cycle;Max_cycle;Signal;HPM_P1;HPM_P2
2022/11/01 00:03:03;;;;;;;52.88;27.75;;;8.40;99.90;;;;;;8346526;28;20033;-83
2022/11/01 00:07:05;;;;;;;66.97;30.00;;;8.20;99.90;;;;;;8337489;28;20090;-82
2022/11/01 00:11:08;;;;;;;74.00;33.17;;;8.00;99.90;;;;;;8340942;28;20433;-82
2022/11/01 00:15:09;;;;;;;121.95;52.22;;;8.10;99.90;;;;;;8346656;28;20032;-82
2022/11/01 00:19:10;;;;;;;81.78;35.72;;;8.10;99.90;;;;;;8338272;28;20481;-81
2022/11/01 00:23:10;;;;;;;59.67;28.10;;;8.00;99.90;;;;;;8343822;28;20032;-80
2022/11/01 00:27:11;;;;;;;64.45;30.05;;;7.90;99.90;;;;;;8335979;28;20041;-82
2022/11/01 00:31:13;;;;;;;73.50;35.05;;;7.90;99.90;;;;;;8344235;28;20028;-82
2022/11/01 00:35:13;;;;;;;63.33;29.75;;;7.80;99.90;;;;;;8346213;28;20032;-81
2022/11/01 00:39:15;;;;;;;61.63;28.98;;;7.70;99.90;;;;;;8349323;28;20534;-83
2022/11/01 00:43:15;;;;;;;69.28;31.52;;;7.50;99.90;;;;;;8349532;28;20404;-82
2022/11/01 00:47:16;;;;;;;67.93;29.40;;;7.60;99.90;;;;;;8356799;28;20021;-82
2022/11/01 00:51:16;;;;;;;60.38;28.75;;;7.70;99.90;;;;;;8352737;28;20014;-82
2022/11/01 00:55:17;;;;;;;57.67;29.17;;;7.70;99.90;;;;;;8351497;28;20119;-82
2022/11/01 00:59:17;;;;;;;66.78;28.65;;;7.70;99.90;;;;;;8356443;28;20037;-83
2022/11/01 01:03:18;;;;;;;61.45;28.75;;;7.70;99.90;;;;;;8353984;28;20028;-82
2022/11/01 01:07:19;;;;;;;64.05;29.30;;;7.60;99.90;;;;;;8343221;28;20392;-82
2022/11/01 01:11:19;;;;;;;59.30;28.83;;;7.60;99.90;;;;;;8347936;28;20055;-82
2022/11/01 01:15:20;;;;;;;45.15;25.23;;;7.70;99.90;;;;;;8365019;28;20027;-82
2022/11/01 01:19:20;;;;;;;51.03;26.20;;;7.90;99.90;;;;;;8357834;28;20029;-83
2022/11/01 01:23:21;;;;;;;57.38;27.02;;;7.60;99.90;;;;;;8346531;28;20032;-82
2022/11/01 01:27:21;;;;;;;57.33;27.98;;;7.30;99.90;;;;;;8346109;28;20467;-82
2022/11/01 01:31:22;;;;;;;53.20;25.95;;;7.10;99.90;;;;;;8339944;28;20018;-82
2022/11/01 01:35:22;;;;;;;53.75;25.58;;;7.20;99.90;;;;;;8349893;28;20183;-82
2022/11/01 01:39:23;;;;;;;61.67;27.98;;;7.20;99.90;;;;;;8347493;28;20477;-82
2022/11/01 01:43:40;;;;;;;60.47;26.50;;;7.30;99.90;;;;;;8354433;28;20102;-81
2022/11/01 01:47:42;;;;;;;58.15;26.25;;;7.10;99.90;;;;;;8346053;28;20109;-80
2022/11/01 01:51:43;;;;;;;66.75;27.80;;;7.10;99.90;;;;;;8355024;28;20013;-82
2022/11/01 01:55:58;;;;;;;68.22;28.83;;;7.10;99.90;;;;;;8363862;28;20029;-82
2022/11/01 01:59:58;;;;;;;64.85;27.83;;;7.00;99.90;;;;;;8353048;28;20041;-81
2022/11/01 02:03:59;;;;;;;51.55;24.25;;;7.00;99.90;;;;;;8358460;28;20039;-81
2022/11/01 02:08:00;;;;;;;59.95;26.88;;;6.90;99.90;;;;;;8389579;28;20049;-82
2022/11/01 02:12:02;;;;;;;67.88;27.75;;;6.80;99.90;;;;;;8361884;28;20093;-82
2022/11/01 02:16:44;;;;;;;64.60;28.67;;;7.00;99.90;;;;;;8362011;28;20507;-82
2022/11/01 02:21:11;;;;;;;65.80;28.00;;;7.00;99.90;;;;;;8349075;28;20528;-82
2022/11/01 02:25:36;;;;;;;61.55;28.25;;;7.10;99.90;;;;;;8353044;28;20485;-82
2022/11/01 02:30:09;;;;;;;63.00;27.52;;;7.10;99.90;;;;;;8359687;28;20017;-82
2022/11/01 02:34:21;;;;;;;67.15;28.85;;;7.00;99.90;;;;;;8357182;28;20094;-82
2022/11/01 02:38:35;;;;;;;64.88;28.40;;;7.00;99.90;;;;;;8347185;28;20690;-82
2022/11/01 02:42:42;;;;;;;71.30;29.50;;;7.10;99.90;;;;;;8354709;28;20032;-82
2022/11/01 02:47:00;;;;;;;67.65;29.20;;;7.30;99.90;;;;;;8357789;28;20021;-83
2022/11/01 02:51:00;;;;;;;58.63;26.05;;;7.30;99.90;;;;;;8352670;28;20029;-83
2022/11/01 02:55:28;;;;;;;52.33;25.95;;;7.50;99.90;;;;;;8350676;28;20052;-83
2022/11/01 02:59:28;;;;;;;60.33;25.88;;;7.50;99.90;;;;;;8356925;28;20037;-83
2022/11/01 03:03:34;;;;;;;59.13;25.88;;;7.50;99.90;;;;;;8357576;28;20045;-82
2022/11/01 03:07:34;;;;;;;60.50;27.30;;;7.50;99.90;;;;;;8347766;28;20405;-84
2022/11/01 03:11:54;;;;;;;60.13;26.60;;;7.60;99.90;;;;;;8351271;28;20029;-83
2022/11/01 03:16:03;;;;;;;60.42;27.13;;;7.50;99.90;;;;;;8342866;28;20481;-83
2022/11/01 03:20:21;;;;;;;70.87;29.73;;;7.50;99.90;;;;;;8354913;28;20074;-83
2022/11/01 03:24:27;;;;;;;66.55;29.48;;;7.60;99.90;;;;;;8348830;28;20263;-82
2022/11/01 03:28:38;;;;;;;84.85;30.80;;;7.80;99.90;;;;;;8342493;28;20032;-83
2022/11/01 03:32:52;;;;;;;65.55;28.80;;;7.70;99.90;;;;;;8353426;28;20108;-82
2022/11/01 03:36:58;;;;;;;61.72;27.77;;;7.70;99.90;;;;;;8348764;28;20393;-83
2022/11/01 03:41:02;;;;;;;57.97;26.83;;;7.70;99.90;;;;;;8337674;28;20127;-82
2022/11/01 03:45:08;;;;;;;54.63;25.80;;;7.70;99.90;;;;;;8354457;28;20025;-84
2022/11/01 03:49:08;;;;;;;58.53;26.70;;;7.70;99.90;;;;;;8350531;28;20028;-84
2022/11/01 03:53:09;;;;;;;58.85;26.70;;;7.60;99.90;;;;;;8358279;28;20056;-84
2022/11/01 03:57:09;;;;;;;58.03;27.63;;;7.80;99.90;;;;;;8350010;28;20032;-83
2022/11/01 04:01:12;;;;;;;60.17;28.58;;;8.00;99.90;;;;;;8344913;22;20507;-83
2022/11/01 04:05:13;;;;;;;72.05;30.13;;;7.80;99.90;;;;;;8322384;28;20367;-84
2022/11/01 04:09:13;;;;;;;70.72;29.67;;;7.70;99.90;;;;;;8313629;28;20259;-83
2022/11/01 04:13:14;;;;;;;84.43;32.78;;;8.10;99.90;;;;;;8309316;28;20168;-83
2022/11/01 04:21:34;;;;;;;99.68;37.00;;;8.20;99.90;;;;;;8317186;28;20156;-83
2022/11/01 04:25:34;;;;;;;85.55;34.92;;;8.30;99.90;;;;;;8311543;28;20030;-83
2022/11/01 04:29:35;;;;;;;88.35;34.35;;;8.30;99.90;;;;;;8313344;28;20484;-83
2022/11/01 04:33:36;;;;;;;73.47;31.73;;;8.60;99.90;;;;;;8310049;28;20025;-82
2022/11/01 04:37:37;;;;;;;78.05;32.25;;;8.60;99.90;;;;;;8314806;28;20025;-84
2022/11/01 04:41:38;;;;;;;64.60;29.95;;;8.50;99.90;;;;;;8307653;28;20025;-83
2022/11/01 04:45:39;;;;;;;61.95;30.10;;;8.70;99.90;;;;;;8307616;28;20109;-83
2022/11/01 04:49:40;;;;;;;76.28;30.40;;;8.80;99.90;;;;;;8312623;28;20025;-83
2022/11/01 04:53:40;;;;;;;64.60;28.23;;;8.70;99.90;;;;;;8311430;28;20363;-83
2022/11/01 04:57:42;;;;;;;55.92;27.58;;;8.80;99.90;;;;;;8313762;28;20029;-83
2022/11/01 05:01:43;;;;;;;46.88;24.08;;;8.60;99.90;;;;;;8315537;28;20112;-83
2022/11/01 05:05:44;;;;;;;51.83;23.95;;;8.60;99.90;;;;;;8300303;28;20038;-83
2022/11/01 05:09:44;;;;;;;48.35;22.10;;;8.50;99.90;;;;;;8321122;28;20500;-82
2022/11/01 05:13:45;;;;;;;44.60;22.25;;;8.50;99.90;;;;;;8325805;28;20645;-83
2022/11/01 05:17:46;;;;;;;42.88;22.00;;;8.50;99.90;;;;;;8309175;28;20481;-83
2022/11/01 05:21:46;;;;;;;38.75;21.45;;;8.50;99.90;;;;;;8331351;28;20393;-83
2022/11/01 05:25:47;;;;;;;37.58;20.58;;;8.50;99.90;;;;;;8324441;28;20401;-83
2022/11/01 05:29:47;;;;;;;40.53;21.25;;;8.30;99.90;;;;;;8319323;28;20018;-83
2022/11/01 05:33:48;;;;;;;43.13;22.70;;;8.50;99.90;;;;;;8319346;28;20032;-84
2022/11/01 05:37:49;;;;;;;50.55;25.10;;;8.50;99.90;;;;;;8324509;28;20064;-83
2022/11/01 05:41:49;;;;;;;54.55;25.05;;;8.40;99.90;;;;;;8319868;28;20029;-82
2022/11/01 05:45:50;;;;;;;54.08;26.10;;;8.50;99.90;;;;;;8319267;28;20021;-83
2022/11/01 05:49:50;;;;;;;71.30;31.65;;;8.60;99.90;;;;;;8317617;28;20045;-83
2022/11/01 05:53:51;;;;;;;81.78;36.05;;;8.80;99.90;;;;;;8322890;28;20067;-84
2022/11/01 05:57:57;;;;;;;68.20;33.17;;;9.10;99.90;;;;;;8322837;28;20416;-84
2022/11/01 06:01:57;;;;;;;87.30;35.88;;;9.40;99.90;;;;;;8328144;28;20033;-82
2022/11/01 06:05:58;;;;;;;89.78;35.50;;;9.40;99.90;;;;;;8309811;28;20033;-84
2022/11/01 06:09:59;;;;;;;95.03;37.47;;;9.60;99.90;;;;;;8306175;28;20030;-83
2022/11/01 06:14:00;;;;;;;118.03;43.85;;;9.80;99.90;;;;;;8317453;28;20052;-83
2022/11/01 06:18:00;;;;;;;142.73;49.63;;;10.10;99.90;;;;;;8319211;28;20026;-83
2022/11/01 06:22:01;;;;;;;127.38;48.17;;;10.50;99.90;;;;;;8316462;28;20034;-83
2022/11/01 06:26:03;;;;;;;114.35;46.05;;;10.70;99.90;;;;;;8326167;28;20022;-84
2022/11/01 06:30:04;;;;;;;95.93;41.33;;;10.80;99.90;;;;;;8319466;28;20029;-84
2022/11/01 06:34:04;;;;;;;83.25;37.85;;;11.20;99.90;;;;;;8332635;28;20414;-82
2022/11/01 06:38:06;;;;;;;88.93;46.60;;;11.30;99.90;;;;;;8308400;28;20082;-83
2022/11/01 06:42:07;;;;;;;63.53;30.80;;;11.50;99.90;;;;;;8306004;28;20033;-83
2022/11/01 06:46:08;;;;;;;48.50;27.55;;;11.70;99.90;;;;;;8323709;28;20403;-82
2022/11/01 06:50:08;;;;;;;52.45;27.10;;;11.80;99.90;;;;;;8308001;28;20109;-83
2022/11/01 06:54:09;;;;;;;48.05;26.63;;;11.70;99.90;;;;;;8327713;28;20021;-83
2022/11/01 06:58:09;;;;;;;49.15;25.75;;;11.70;99.90;;;;;;8317235;28;20493;-82
2022/11/01 07:02:10;;;;;;;44.67;24.65;;;11.90;99.90;;;;;;8314071;28;20054;-83
2022/11/01 07:06:11;;;;;;;39.15;23.35;;;11.80;99.90;;;;;;8306562;28;20022;-83
2022/11/01 07:10:11;;;;;;;36.63;21.58;;;11.80;99.90;;;;;;8314189;28;20018;-83
2022/11/01 07:14:12;;;;;;;40.33;20.98;;;12.00;99.90;;;;;;8306109;28;20053;-83
2022/11/01 07:18:12;;;;;;;36.42;21.85;;;12.20;99.90;;;;;;8317613;28;20022;-83
2022/11/01 07:22:13;;;;;;;33.20;20.88;;;12.40;99.90;;;;;;8310821;28;20029;-82
2022/11/01 07:26:14;;;;;;;37.45;20.02;;;12.40;99.90;;;;;;8310398;28;20036;-83
2022/11/01 07:30:15;;;;;;;29.55;17.27;;;12.50;99.90;;;;;;8320608;28;20076;-82
2022/11/01 07:34:15;;;;;;;28.83;16.27;;;13.00;99.90;;;;;;8355016;22;20052;-86
2022/11/01 07:38:19;;;;;;;27.20;14.32;;;13.30;99.90;;;;;;8371148;28;20040;-86
2022/11/01 07:42:19;;;;;;;24.27;13.07;;;13.70;99.90;;;;;;8373771;28;20405;-86
2022/11/01 07:46:20;;;;;;;14.43;8.90;;;14.00;99.90;;;;;;8379284;28;20110;-85
2022/11/01 07:50:20;;;;;;;16.85;7.55;;;14.30;99.90;;;;;;8378433;28;20020;-85
2022/11/01 07:54:21;;;;;;;13.50;6.75;;;14.40;99.90;;;;;;8373079;28;20027;-84
2022/11/01 07:58:21;;;;;;;8.68;5.43;;;14.50;99.90;;;;;;8372552;28;20202;-85
2022/11/01 08:02:22;;;;;;;13.40;5.78;;;14.60;99.90;;;;;;8382373;28;20031;-85
2022/11/01 08:06:22;;;;;;;13.63;5.93;;;14.70;99.90;;;;;;8372803;28;20051;-85
2022/11/01 08:10:24;;;;;;;9.93;4.88;;;14.70;99.90;;;;;;8371557;28;20024;-84
2022/11/01 08:14:24;;;;;;;10.13;4.82;;;14.90;99.90;;;;;;8378530;28;20021;-85
2022/11/01 08:18:25;;;;;;;11.10;5.38;;;15.00;99.90;;;;;;8371554;28;20078;-85
2022/11/01 08:22:26;;;;;;;9.93;4.55;;;15.00;99.90;;;;;;8370695;28;20021;-84
2022/11/01 08:26:26;;;;;;;10.40;4.40;;;15.10;99.90;;;;;;8363760;28;20412;-85
2022/11/01 08:30:27;;;;;;;9.02;4.60;;;15.30;99.90;;;;;;8370047;28;20362;-84
2022/11/01 08:34:29;;;;;;;9.63;5.10;;;15.40;99.90;;;;;;8380206;28;20033;-85
2022/11/01 08:38:30;;;;;;;11.88;5.88;;;15.60;99.90;;;;;;8376188;28;20024;-84
2022/11/01 08:42:30;;;;;;;9.48;4.95;;;15.50;99.90;;;;;;8375187;28;20040;-85
2022/11/01 08:46:31;;;;;;;10.02;4.50;;;15.40;99.90;;;;;;8379341;28;20032;-84
2022/11/01 08:50:33;;;;;;;10.63;5.20;;;15.30;99.90;;;;;;8387981;28;20033;-85
2022/11/01 08:54:33;;;;;;;8.85;4.68;;;15.40;99.90;;;;;;8374207;28;20032;-86
2022/11/01 08:58:34;;;;;;;8.32;4.75;;;15.70;99.90;;;;;;8381968;28;20027;-86
2022/11/01 09:02:34;;;;;;;7.65;4.40;;;16.00;99.90;;;;;;8375516;28;20488;-85
2022/11/01 09:06:35;;;;;;;12.95;4.45;;;16.30;99.90;;;;;;8374558;28;20028;-86
2022/11/01 09:10:35;;;;;;;5.43;3.28;;;16.30;99.90;;;;;;8374121;28;20029;-86
2022/11/01 09:14:36;;;;;;;7.97;3.75;;;16.60;99.90;;;;;;8379490;28;20489;-87
2022/11/01 09:18:37;;;;;;;6.97;3.58;;;16.60;99.90;;;;;;8366506;28;20029;-86
2022/11/01 09:22:37;;;;;;;4.60;3.22;;;16.50;99.90;;;;;;8380838;28;20029;-87
2022/11/01 09:26:38;;;;;;;5.95;3.67;;;16.50;99.90;;;;;;8366479;28;20029;-87
2022/11/01 09:30:39;;;;;;;4.68;3.13;;;16.40;99.90;;;;;;8374021;28;20017;-86
2022/11/01 09:34:39;;;;;;;6.78;3.63;;;16.40;99.90;;;;;;8381925;28;20024;-85
2022/11/01 09:38:40;;;;;;;6.70;3.45;;;16.40;99.90;;;;;;8375729;28;20154;-86
2022/11/01 09:42:43;;;;;;;7.85;3.47;;;16.60;99.90;;;;;;8373505;28;20040;-86
2022/11/01 09:46:48;;;;;;;5.35;3.38;;;16.80;99.90;;;;;;8380921;28;20489;-86
2022/11/01 09:50:49;;;;;;;6.47;3.13;;;16.70;99.90;;;;;;8382903;28;20029;-86
2022/11/01 09:54:50;;;;;;;5.35;3.15;;;16.70;99.90;;;;;;8386906;28;20108;-87
2022/11/01 09:59:05;;;;;;;8.02;3.50;;;16.80;99.90;;;;;;8384937;28;20020;-85
2022/11/01 10:03:32;;;;;;;10.13;3.50;;;16.90;99.90;;;;;;8385688;28;20116;-85
2022/11/01 10:07:59;;;;;;;7.45;3.30;;;17.00;99.90;;;;;;8381555;28;20036;-92
2022/11/01 10:12:16;;;;;;;6.65;3.58;;;17.20;99.90;;;;;;8380837;28;20501;-90
2022/11/01 10:16:40;;;;;;;6.85;3.60;;;17.20;99.90;;;;;;8374188;28;20032;-92
2022/11/01 10:20:41;;;;;;;9.85;4.20;;;17.10;99.90;;;;;;8379830;28;20025;-91
2022/11/01 10:25:01;;;;;;;6.80;3.17;;;17.10;99.90;;;;;;8380814;28;20090;-90
2022/11/01 10:29:11;;;;;;;7.68;2.92;;;17.20;99.90;;;;;;8383850;28;20031;-89
2022/11/01 10:34:01;;;;;;;5.60;3.10;;;17.30;99.90;;;;;;8374714;28;20017;-91
2022/11/01 10:38:13;;;;;;;6.35;2.78;;;17.50;99.90;;;;;;8308998;28;20063;-92
2022/11/01 10:42:17;;;;;;;5.38;2.80;;;17.50;99.90;;;;;;8349940;28;20040;-92
2022/11/01 10:46:26;;;;;;;5.88;2.90;;;17.90;99.90;;;;;;8372038;28;20025;-93
2022/11/01 10:50:33;;;;;;;6.88;2.85;;;18.00;99.90;;;;;;8378206;28;20627;-93
2022/11/01 10:54:36;;;;;;;9.00;2.80;;;17.90;99.90;;;;;;8387362;28;20203;-92
2022/11/01 10:58:55;;;;;;;4.10;2.40;;;17.80;99.90;;;;;;8383994;28;20116;-91
2022/11/01 11:03:07;;;;;;;6.35;2.67;;;18.00;99.90;;;;;;8379831;28;20029;-92
2022/11/01 11:07:16;;;;;;;5.03;2.58;;;18.20;99.90;;;;;;8374304;28;20032;-91
2022/11/01 11:11:21;;;;;;;3.67;2.25;;;18.50;99.90;;;;;;8370841;28;20103;-92
2022/11/01 11:15:35;;;;;;;4.78;2.13;;;18.60;99.90;;;;;;8382992;28;20074;-93
2022/11/01 11:19:41;;;;;;;3.85;1.92;;;18.40;99.90;;;;;;8374467;28;20054;-91
2022/11/01 11:23:44;;;;;;;5.90;2.42;;;18.40;99.90;;;;;;8368569;28;20092;-93
2022/11/01 11:27:51;;;;;;;5.30;2.15;;;18.70;99.90;;;;;;8373084;28;20737;-91
2022/11/01 11:31:58;;;;;;;3.80;2.30;;;18.50;99.90;;;;;;8375248;28;20084;-92
2022/11/01 11:35:58;;;;;;;6.45;2.75;;;18.60;99.90;;;;;;8378412;28;20060;-92
2022/11/01 11:40:23;;;;;;;3.40;2.05;;;18.70;99.90;;;;;;8365186;28;20040;-92
2022/11/01 11:44:44;;;;;;;6.47;2.17;;;18.60;99.90;;;;;;8368813;28;20548;-93
2022/11/01 11:48:52;;;;;;;3.70;2.30;;;18.60;99.90;;;;;;8382277;28;20025;-92
2022/11/01 11:53:03;;;;;;;5.68;2.25;;;18.50;99.90;;;;;;8379690;28;20021;-93
2022/11/01 11:57:07;;;;;;;3.63;1.90;;;18.20;99.90;;;;;;8370325;28;20037;-93
2022/11/01 12:01:24;;;;;;;3.72;2.35;;;18.00;99.90;;;;;;8373231;28;20025;-90
2022/11/01 12:05:27;;;;;;;6.47;2.38;;;18.00;99.90;;;;;;8382268;28;20031;-94
2022/11/01 12:09:42;;;;;;;4.70;2.17;;;18.10;99.90;;;;;;8383562;28;20028;-88
2022/11/01 12:13:57;;;;;;;3.38;2.03;;;18.00;99.90;;;;;;8369922;28;20021;-91
2022/11/01 12:18:15;;;;;;;3.67;2.10;;;18.00;99.90;;;;;;8382033;28;20100;-90
2022/11/01 12:22:17;;;;;;;7.28;2.10;;;17.90;99.90;;;;;;8385514;28;20033;-92
2022/11/01 12:26:19;;;;;;;6.05;2.30;;;17.80;99.90;;;;;;8393800;28;20028;-93
2022/11/01 12:30:23;;;;;;;7.47;2.15;;;18.10;99.90;;;;;;8375561;28;20280;-91
2022/11/01 12:34:25;;;;;;;4.30;2.10;;;18.10;99.90;;;;;;8369342;28;20059;-89
2022/11/01 12:39:11;;;;;;;6.45;2.03;;;18.10;99.90;;;;;;8421634;28;20017;-91
2022/11/01 12:43:18;;;;;;;5.47;2.03;;;17.90;99.90;;;;;;8361622;28;20384;-92
2022/11/01 12:47:37;;;;;;;7.38;1.88;;;17.90;99.90;;;;;;8382322;28;20028;-91
2022/11/01 12:51:44;;;;;;;8.10;2.10;;;18.10;99.90;;;;;;8367465;28;20017;-91
2022/11/01 12:55:46;;;;;;;3.92;2.00;;;18.00;99.90;;;;;;8366191;28;20036;-94
2022/11/01 12:59:47;;;;;;;3.38;1.75;;;17.90;99.90;;;;;;8392422;28;20024;-91
2022/11/01 13:04:19;;;;;;;2.85;1.52;;;18.00;99.90;;;;;;8365963;28;20120;-91
2022/11/01 13:08:31;;;;;;;2.45;1.90;;;18.00;99.90;;;;;;8375226;28;20081;-90
2022/11/01 13:12:45;;;;;;;3.63;1.73;;;17.90;99.90;;;;;;8369624;28;20428;-92
2022/11/01 13:16:54;;;;;;;3.92;1.90;;;17.90;99.90;;;;;;8367724;28;20039;-92
2022/11/01 13:21:04;;;;;;;3.60;1.80;;;17.80;99.90;;;;;;8375812;28;20031;-92
2022/11/01 13:25:12;;;;;;;;;;;17.70;99.90;;;;;;8368356;28;20033;-92
2022/11/01 13:29:28;;;;;;;4.65;1.90;;;17.60;99.90;;;;;;8370980;28;19912;-91
2022/11/01 13:33:38;;;;;;;6.07;1.90;;;17.40;99.90;;;;;;8366879;28;20480;-90
2022/11/01 13:37:54;;;;;;;3.78;2.33;;;17.30;99.90;;;;;;8380246;28;20112;-92
2022/11/01 13:42:16;;;;;;;3.70;1.95;;;17.40;99.90;;;;;;8356384;28;20021;-92
2022/11/01 13:46:42;;;;;;;4.53;1.98;;;17.30;99.90;;;;;;8383242;28;20025;-93
2022/11/01 13:51:03;;;;;;;5.88;2.10;;;17.10;99.90;;;;;;8381348;28;20062;-92
2022/11/01 13:55:24;;;;;;;6.40;2.10;;;17.00;99.90;;;;;;8371535;28;20055;-91
2022/11/01 13:59:43;;;;;;;3.88;2.08;;;16.90;99.90;;;;;;8369363;28;20103;-92
2022/11/01 14:03:44;;;;;;;4.70;2.10;;;16.90;99.90;;;;;;8359583;28;20066;-92
2022/11/01 14:07:44;;;;;;;6.85;2.13;;;16.70;99.90;;;;;;8362066;28;20036;-92
2022/11/01 14:11:48;;;;;;;3.90;1.85;;;16.70;99.90;;;;;;8353265;28;20079;-91
2022/11/01 14:15:56;;;;;;;6.20;2.42;;;16.50;99.90;;;;;;8359633;28;20033;-92
2022/11/01 14:19:57;;;;;;;5.18;2.63;;;16.30;99.90;;;;;;8365516;28;20078;-91
2022/11/01 14:24:00;;;;;;;4.70;2.55;;;16.30;99.90;;;;;;8369913;28;20484;-92
2022/11/01 14:28:16;;;;;;;7.18;2.50;;;16.20;99.90;;;;;;8359257;28;20459;-92
2022/11/01 14:32:20;;;;;;;5.03;2.40;;;16.40;99.90;;;;;;8351477;28;20151;-89
2022/11/01 14:36:26;;;;;;;6.85;2.65;;;16.50;99.90;;;;;;8357865;28;20634;-91
2022/11/01 14:40:38;;;;;;;6.20;2.35;;;16.70;99.90;;;;;;8358092;28;20025;-91
2022/11/01 14:44:43;;;;;;;6.80;3.00;;;16.80;99.90;;;;;;8370997;28;20656;-90
2022/11/01 14:48:50;;;;;;;6.68;2.20;;;17.00;99.90;;;;;;8371989;28;20120;-92
2022/11/01 14:52:59;;;;;;;4.80;2.15;;;16.90;99.90;;;;;;8368353;28;20023;-91
2022/11/01 14:57:00;;;;;;;8.85;2.63;;;16.70;99.90;;;;;;8383333;28;20079;-90
2022/11/01 15:01:08;;;;;;;9.10;2.47;;;16.40;99.90;;;;;;8365688;28;20032;-91
2022/11/01 15:05:11;;;;;;;5.18;2.80;;;16.00;99.90;;;;;;8363193;28;20024;-90
2022/11/01 15:09:21;;;;;;;8.02;3.10;;;16.00;99.90;;;;;;8362154;28;20028;-91
2022/11/01 15:13:26;;;;;;;6.60;2.10;;;16.20;99.90;;;;;;8360803;28;20059;-92
2022/11/01 15:17:31;;;;;;;10.75;2.47;;;16.40;99.90;;;;;;8362276;28;20029;-91
2022/11/01 15:21:33;;;;;;;6.72;2.30;;;16.30;99.90;;;;;;8359126;28;20041;-91
2022/11/01 15:25:33;;;;;;;8.00;2.25;;;16.10;99.90;;;;;;8368686;28;20086;-91
2022/11/01 15:29:35;;;;;;;5.55;2.30;;;16.10;99.90;;;;;;8364779;28;20021;-91
2022/11/01 15:33:36;;;;;;;8.35;3.00;;;15.90;99.90;;;;;;8373851;28;20492;-91
2022/11/01 15:37:48;;;;;;;5.28;2.47;;;15.70;99.90;;;;;;8367904;28;20466;-92
2022/11/01 15:41:49;;;;;;;8.45;2.72;;;15.60;99.90;;;;;;8368193;28;20060;-92
2022/11/01 15:45:58;;;;;;;7.47;2.30;;;15.70;99.90;;;;;;8362906;28;20654;-90
2022/11/01 15:50:12;;;;;;;8.75;2.65;;;15.60;99.90;;;;;;8359858;28;20037;-91
2022/11/01 15:54:36;;;;;;;5.22;2.50;;;15.20;99.90;;;;;;8358674;28;20469;-91
2022/11/01 15:58:44;;;;;;;5.75;2.40;;;14.90;99.90;;;;;;8367058;28;20029;-92
2022/11/01 16:02:55;;;;;;;4.68;2.35;;;14.70;99.90;;;;;;8375536;28;20614;-92
2022/11/01 16:07:00;;;;;;;8.52;2.72;;;14.40;99.90;;;;;;8368884;28;20111;-92
2022/11/01 16:11:02;;;;;;;6.65;2.58;;;14.10;99.90;;;;;;8374336;28;20017;-91
2022/11/01 16:15:18;;;;;;;7.22;2.53;;;13.90;99.90;;;;;;8365155;28;20021;-93
2022/11/01 16:19:38;;;;;;;10.52;3.28;;;13.70;99.90;;;;;;8362905;28;20025;-93
2022/11/01 16:23:56;;;;;;;5.85;2.80;;;13.40;99.90;;;;;;8354666;28;20024;-93
2022/11/01 16:27:57;;;;;;;6.38;2.75;;;13.00;99.90;;;;;;8360517;28;20025;-92
2022/11/01 16:32:05;;;;;;;8.10;3.40;;;12.70;99.90;;;;;;8360472;28;20029;-93
2022/11/01 16:36:18;;;;;;;15.85;9.30;;;12.40;99.90;;;;;;8354195;28;20422;-93
2022/11/01 16:40:24;;;;;;;9.90;4.68;;;12.30;99.90;;;;;;8366588;28;20794;-92
2022/11/01 16:44:25;;;;;;;5.43;2.58;;;12.10;99.90;;;;;;8357059;28;20425;-91
2022/11/01 16:48:29;;;;;;;8.85;3.50;;;11.90;99.90;;;;;;8358758;28;20025;-92
2022/11/01 16:52:34;;;;;;;8.52;4.15;;;11.80;99.90;;;;;;8364677;28;20024;-92
2022/11/01 16:56:50;;;;;;;8.18;3.50;;;11.70;99.90;;;;;;8372027;28;20028;-93
2022/11/01 17:00:54;;;;;;;8.85;3.10;;;11.60;99.90;;;;;;8360470;28;20021;-87
2022/11/01 17:05:05;;;;;;;11.63;5.10;;;11.40;99.90;;;;;;8372319;28;20029;-87
2022/11/01 17:09:12;;;;;;;12.30;4.95;;;11.50;99.90;;;;;;8374757;28;20025;-87
2022/11/01 17:13:12;;;;;;;16.40;6.00;;;11.60;99.90;;;;;;8382965;28;20020;-87
2022/11/01 17:17:16;;;;;;;9.38;4.35;;;11.60;99.90;;;;;;8380695;28;20695;-90
2022/11/01 17:21:16;;;;;;;51.38;35.63;;;11.50;99.90;;;;;;8385095;28;20021;-86
2022/11/01 17:25:19;;;;;;;14.68;6.07;;;11.60;99.90;;;;;;8365715;28;20523;-86
2022/11/01 17:29:19;;;;;;;11.68;5.43;;;11.60;99.90;;;;;;8358942;28;20526;-86
2022/11/01 17:33:20;;;;;;;11.50;7.03;;;11.40;99.90;;;;;;8364568;28;20024;-86
2022/11/01 17:37:21;;;;;;;9.93;4.88;;;11.00;99.90;;;;;;8362288;28;20048;-87
2022/11/01 17:41:22;;;;;;;13.43;7.40;;;10.90;99.90;;;;;;8364096;28;20029;-86
2022/11/01 17:45:22;;;;;;;26.83;13.80;;;10.80;99.90;;;;;;8380399;28;20040;-85
2022/11/01 17:49:23;;;;;;;17.38;10.45;;;10.70;99.90;;;;;;8383116;28;20563;-85
2022/11/01 17:53:24;;;;;;;28.98;15.95;;;10.50;99.90;;;;;;8375650;28;20095;-86
2022/11/01 17:57:24;;;;;;;35.35;18.88;;;10.40;99.90;;;;;;8373369;28;20028;-85
2022/11/01 18:01:27;;;;;;;42.35;21.77;;;10.20;99.90;;;;;;8365837;28;20068;-87
2022/11/01 18:05:27;;;;;;;21.98;12.65;;;10.10;99.90;;;;;;8351659;28;20481;-85
2022/11/01 18:09:28;;;;;;;13.50;8.75;;;10.10;99.90;;;;;;8377265;28;20035;-85
2022/11/01 18:13:47;;;;;;;12.88;5.85;;;10.00;99.90;;;;;;8377614;28;20047;-85
2022/11/01 18:18:03;;;;;;;12.98;8.65;;;9.90;99.90;;;;;;8381959;28;20447;-85
2022/11/01 18:22:42;;;;;;;17.33;12.00;;;9.80;99.90;;;;;;8380887;28;20088;-86
2022/11/01 18:26:46;;;;;;;18.42;11.90;;;9.80;99.90;;;;;;8365845;28;20025;-86
2022/11/01 18:31:22;;;;;;;22.02;13.52;;;10.00;99.90;;;;;;8378507;28;20035;-85
2022/11/01 18:35:30;;;;;;;22.70;11.82;;;10.20;99.90;;;;;;8360050;28;20059;-86
2022/11/01 18:39:36;;;;;;;19.95;10.07;;;9.90;99.90;;;;;;8366588;28;20036;-86
2022/11/01 18:43:37;;;;;;;19.67;11.55;;;9.60;99.90;;;;;;8366049;28;20033;-84
2022/11/01 18:47:44;;;;;;;27.52;16.75;;;9.40;99.90;;;;;;8366510;28;20403;-84
2022/11/01 18:51:45;;;;;;;23.40;15.60;;;9.30;99.90;;;;;;8377743;28;20637;-85
2022/11/01 18:55:49;;;;;;;26.23;15.25;;;9.10;99.90;;;;;;8387365;28;20017;-87
2022/11/01 18:59:52;;;;;;;21.83;12.65;;;9.00;99.90;;;;;;8369693;28;20618;-86
2022/11/01 19:04:19;;;;;;;22.48;11.85;;;8.80;99.90;;;;;;8359945;28;20021;-85
2022/11/01 19:08:23;;;;;;;18.15;10.93;;;8.80;99.90;;;;;;8344896;28;20314;-85
2022/11/01 19:12:44;;;;;;;20.70;11.77;;;8.70;99.90;;;;;;8360213;28;20025;-86
2022/11/01 19:16:44;;;;;;;23.05;10.73;;;8.60;99.90;;;;;;8358590;28;20488;-86
2022/11/01 19:20:54;;;;;;;16.77;8.50;;;8.70;99.90;;;;;;8358872;28;20037;-86
2022/11/01 19:24:55;;;;;;;11.98;7.60;;;8.50;99.90;;;;;;8375435;28;20058;-85
2022/11/01 19:28:56;;;;;;;15.05;8.75;;;8.40;99.90;;;;;;8375212;28;20077;-85
2022/11/01 19:33:14;;;;;;;18.73;10.38;;;8.40;99.90;;;;;;8381809;28;20048;-85
2022/11/01 19:37:26;;;;;;;17.65;9.68;;;8.40;99.90;;;;;;8373605;28;20037;-86
2022/11/01 19:41:33;;;;;;;12.32;7.85;;;8.60;99.90;;;;;;8358816;28;20033;-85
2022/11/01 19:45:51;;;;;;;11.20;6.78;;;8.50;99.90;;;;;;8370429;28;20025;-85
2022/11/01 19:49:52;;;;;;;11.82;7.25;;;8.30;99.90;;;;;;8371888;28;20026;-86
2022/11/01 19:54:11;;;;;;;16.08;8.13;;;8.10;99.90;;;;;;8358767;28;20017;-85
2022/11/01 19:58:23;;;;;;;17.35;10.48;;;8.10;99.90;;;;;;8374720;28;20033;-86
2022/11/01 20:02:25;;;;;;;24.90;15.10;;;8.10;99.90;;;;;;8368332;28;20191;-86
2022/11/01 20:06:34;;;;;;;27.77;15.75;;;8.10;99.90;;;;;;8384778;28;20026;-85
2022/11/01 20:10:34;;;;;;;20.20;12.23;;;8.40;99.90;;;;;;8374725;28;20642;-85
2022/11/01 20:14:35;;;;;;;21.90;13.05;;;8.70;99.90;;;;;;8373530;28;20104;-85
2022/11/01 20:18:36;;;;;;;18.10;11.75;;;8.60;99.90;;;;;;8379753;28;20507;-85
2022/11/01 20:22:36;;;;;;;18.50;11.90;;;8.30;99.90;;;;;;8382398;28;20043;-85
2022/11/01 20:26:37;;;;;;;18.02;11.20;;;8.00;99.90;;;;;;8371264;28;20109;-85
2022/11/01 20:30:37;;;;;;;20.17;11.90;;;8.00;99.90;;;;;;8376984;28;20028;-85
2022/11/01 20:34:38;;;;;;;19.05;11.43;;;8.00;99.90;;;;;;8368311;28;20056;-86
2022/11/01 20:38:39;;;;;;;33.15;18.05;;;7.80;99.90;;;;;;8369579;28;20111;-85
2022/11/01 20:42:39;;;;;;;31.35;17.90;;;7.70;99.90;;;;;;8375552;28;20392;-85
2022/11/01 20:46:40;;;;;;;31.48;17.42;;;7.80;99.90;;;;;;8383745;28;20027;-85
2022/11/01 20:50:40;;;;;;;24.83;15.20;;;7.70;99.90;;;;;;8378626;28;20056;-85
2022/11/01 20:54:41;;;;;;;26.88;13.95;;;7.60;99.90;;;;;;8384917;28;20116;-84
2022/11/01 20:58:41;;;;;;;24.52;13.30;;;7.60;99.90;;;;;;8385561;28;20025;-85
2022/11/01 21:02:48;;;;;;;22.92;11.52;;;7.50;99.90;;;;;;8383113;28;20058;-85
2022/11/01 21:06:49;;;;;;;22.85;12.60;;;7.30;99.90;;;;;;8374293;28;20114;-85
2022/11/01 21:11:07;;;;;;;22.80;12.48;;;7.30;99.90;;;;;;8382200;28;20473;-85
2022/11/01 21:20:26;;;;;;;24.45;11.30;;;7.30;99.90;;;;;;8376465;28;20024;-85